createdAt,value
2017-11-07T00:01:02.519Z,90.62
2017-11-07T00:03:31.186Z,90.59
2017-11-07T00:05:59.834Z,90.68
2017-11-07T00:08:28.460Z,90.56
2017-11-07T00:10:57.110Z,90.59
2017-11-07T00:13:25.634Z,90.57
2017-11-07T00:15:54.346Z,90.57
2017-11-07T00:18:22.985Z,90.59
2017-11-07T00:20:52.062Z,90.58
2017-11-07T00:23:20.709Z,90.55
2017-11-07T00:25:49.456Z,90.62
2017-11-07T00:28:18.156Z,90.58
2017-11-07T00:30:46.883Z,90.50
2017-11-07T00:33:15.539Z,90.53
2017-11-07T00:35:44.236Z,90.57
2017-11-07T00:38:12.987Z,90.58
2017-11-07T00:40:41.713Z,90.54
2017-11-07T00:43:10.365Z,90.55
2017-11-07T00:45:39.010Z,90.52
2017-11-07T00:48:07.710Z,90.60
2017-11-07T00:50:36.373Z,90.47
2017-11-07T00:53:05.047Z,90.62
2017-11-07T00:55:33.831Z,90.48
2017-11-07T00:58:02.474Z,90.59
2017-11-07T01:00:31.264Z,90.50
2017-11-07T01:02:59.898Z,90.52
2017-11-07T01:05:28.549Z,90.55
2017-11-07T01:07:57.278Z,90.60
2017-11-07T01:10:25.926Z,90.57
2017-11-07T01:12:54.578Z,90.60
2017-11-07T01:15:23.336Z,90.57
2017-11-07T01:17:52.465Z,90.58
2017-11-07T01:20:21.170Z,90.61
2017-11-07T01:22:49.814Z,90.52
2017-11-07T01:25:18.523Z,90.57
2017-11-07T01:27:47.215Z,90.54
2017-11-07T01:30:15.869Z,90.58
2017-11-07T01:32:44.523Z,90.49
2017-11-07T01:35:13.267Z,90.50
2017-11-07T01:37:41.914Z,90.50
2017-11-07T01:40:10.751Z,90.53
2017-11-07T01:42:39.400Z,90.52
2017-11-07T01:45:08.115Z,90.44
2017-11-07T01:47:36.803Z,90.50
2017-11-07T01:50:05.552Z,90.50
2017-11-07T01:52:34.070Z,90.54
2017-11-07T01:55:02.771Z,90.56
2017-11-07T01:57:31.450Z,90.45
2017-11-07T02:00:00.167Z,90.52
2017-11-07T02:02:28.913Z,90.60
2017-11-07T02:04:57.566Z,90.64
2017-11-07T02:07:26.266Z,90.66
2017-11-07T02:09:54.955Z,90.53
2017-11-07T02:12:23.828Z,90.57
2017-11-07T02:14:52.506Z,90.60
2017-11-07T02:17:21.474Z,90.53
2017-11-07T02:19:50.180Z,90.46
2017-11-07T02:22:18.831Z,90.52
2017-11-07T02:24:47.204Z,90.52
2017-11-07T02:27:15.920Z,90.56
2017-11-07T02:29:48.715Z,90.57
2017-11-07T02:32:17.729Z,90.58
2017-11-07T02:34:46.449Z,90.51
2017-11-07T02:37:19.346Z,90.52
2017-11-07T02:39:48.057Z,90.52
2017-11-07T02:42:16.777Z,90.54
2017-11-07T02:44:45.527Z,90.50
2017-11-07T02:47:14.212Z,90.67
2017-11-07T02:49:42.901Z,90.64
2017-11-07T02:52:11.617Z,90.64
2017-11-07T02:54:40.262Z,90.49
2017-11-07T02:57:11.219Z,90.61
2017-11-07T02:59:39.894Z,90.62
2017-11-07T03:02:08.559Z,90.55
2017-11-07T03:04:37.256Z,90.59
2017-11-07T03:07:09.219Z,90.54
2017-11-07T03:09:37.944Z,90.65
2017-11-07T03:12:06.675Z,90.56
2017-11-07T03:14:35.682Z,90.63
2017-11-07T03:17:08.206Z,90.63
2017-11-07T03:19:36.904Z,90.63
2017-11-07T03:22:05.560Z,90.61
2017-11-07T03:24:46.520Z,90.56
2017-11-07T03:27:16.480Z,90.58
2017-11-07T03:29:56.285Z,90.58
2017-11-07T03:32:30.624Z,90.57
2017-11-07T03:35:03.656Z,90.63
2017-11-07T03:37:34.770Z,90.62
2017-11-07T03:40:04.404Z,90.56
2017-11-07T03:42:34.560Z,90.60
2017-11-07T03:45:06.561Z,90.54
2017-11-07T03:47:37.726Z,90.55
2017-11-07T03:50:08.814Z,90.62
2017-11-07T03:52:37.621Z,90.62
2017-11-07T03:55:06.267Z,90.63
2017-11-07T03:57:34.965Z,90.60
2017-11-07T04:00:03.755Z,90.66
2017-11-07T04:02:32.472Z,90.66
2017-11-07T04:05:01.130Z,90.61
2017-11-07T04:07:29.825Z,90.62
2017-11-07T04:09:58.535Z,90.66
2017-11-07T04:12:27.184Z,90.65
2017-11-07T04:14:55.840Z,90.61
2017-11-07T04:17:24.530Z,90.60
2017-11-07T04:19:53.181Z,90.58
2017-11-07T04:22:21.873Z,90.65
2017-11-07T04:24:50.535Z,90.58
2017-11-07T04:27:19.243Z,90.45
2017-11-07T04:29:49.711Z,90.48
2017-11-07T04:32:18.382Z,90.53
2017-11-07T04:34:47.067Z,90.60
2017-11-07T04:37:16.145Z,90.53
2017-11-07T04:39:44.794Z,90.58
2017-11-07T04:42:13.496Z,90.59
2017-11-07T04:44:42.213Z,90.61
2017-11-07T04:47:13.387Z,90.62
2017-11-07T04:49:42.049Z,90.61
2017-11-07T04:52:10.738Z,90.63
2017-11-07T04:54:39.391Z,90.69
2017-11-07T04:57:13.375Z,90.59
2017-11-07T04:59:42.017Z,90.66
2017-11-07T05:02:10.917Z,90.67
2017-11-07T05:04:39.626Z,90.64
2017-11-07T05:07:09.994Z,90.59
2017-11-07T05:09:38.681Z,90.63
2017-11-07T05:12:07.441Z,90.67
2017-11-07T05:14:50.762Z,90.68
2017-11-07T05:17:38.374Z,90.68
2017-11-07T05:20:24.023Z,90.65
2017-11-07T05:23:08.166Z,90.64
2017-11-07T05:25:52.991Z,90.58
2017-11-07T05:28:22.636Z,90.57
2017-11-07T05:31:07.917Z,90.62
2017-11-07T05:33:52.172Z,90.56
2017-11-07T05:36:37.785Z,90.59
2017-11-07T05:39:22.278Z,90.66
2017-11-07T05:42:04.126Z,90.59
2017-11-07T05:44:33.512Z,90.57
2017-11-07T05:47:02.253Z,90.48
2017-11-07T05:49:32.242Z,90.63
2017-11-07T05:52:00.957Z,90.55
2017-11-07T05:54:45.316Z,90.56
2017-11-07T05:57:30.513Z,90.59
2017-11-07T06:00:16.947Z,90.55
2017-11-07T06:03:02.418Z,90.54
2017-11-07T06:05:47.802Z,90.54
2017-11-07T06:08:33.063Z,90.63
2017-11-07T06:11:18.017Z,90.58
2017-11-07T06:14:03.908Z,90.66
2017-11-07T06:16:49.039Z,90.62
2017-11-07T06:19:18.740Z,90.63
2017-11-07T06:21:47.382Z,90.63
2017-11-07T06:24:15.975Z,90.61
2017-11-07T06:26:44.649Z,90.65
2017-11-07T06:29:13.363Z,90.74
2017-11-07T06:31:42.038Z,90.65
2017-11-07T06:34:10.786Z,90.60
2017-11-07T06:36:39.332Z,90.65
2017-11-07T06:39:08.051Z,90.61
2017-11-07T06:41:36.721Z,90.60
2017-11-07T06:44:05.490Z,90.59
2017-11-07T06:46:34.473Z,90.60
2017-11-07T06:49:03.178Z,90.56
2017-11-07T06:51:32.141Z,90.63
2017-11-07T06:54:00.842Z,90.65
2017-11-07T06:56:29.633Z,90.57
2017-11-07T06:58:58.281Z,90.58
2017-11-07T07:01:26.677Z,90.54
2017-11-07T07:03:55.406Z,90.56
2017-11-07T07:06:24.362Z,90.65
2017-11-07T07:08:53.047Z,90.60
2017-11-07T07:11:21.802Z,90.66
2017-11-07T07:13:50.463Z,90.49
2017-11-07T07:16:19.210Z,90.65
2017-11-07T07:18:48.190Z,90.64
2017-11-07T07:21:16.897Z,90.64
2017-11-07T07:23:45.554Z,90.66
2017-11-07T07:26:14.242Z,90.71
2017-11-07T07:28:42.953Z,90.62
2017-11-07T07:31:11.616Z,90.65
2017-11-07T07:33:40.328Z,90.67
2017-11-07T07:36:09.031Z,90.60
2017-11-07T07:38:37.723Z,90.68
2017-11-07T07:41:06.381Z,90.73
2017-11-07T07:43:35.059Z,90.71
2017-11-07T07:46:03.856Z,90.68
2017-11-07T07:48:32.545Z,90.72
2017-11-07T07:51:01.238Z,90.71
2017-11-07T07:53:30.219Z,90.75
2017-11-07T07:55:58.359Z,90.68
2017-11-07T07:58:26.995Z,90.79
2017-11-07T08:00:55.678Z,90.75
2017-11-07T08:03:24.362Z,90.88
2017-11-07T08:05:52.799Z,90.85
2017-11-07T08:08:21.199Z,90.86
2017-11-07T08:10:49.862Z,90.84
2017-11-07T08:13:18.522Z,90.82
2017-11-07T08:15:47.095Z,90.84
2017-11-07T08:18:15.795Z,90.84
2017-11-07T08:20:47.473Z,90.81
2017-11-07T08:23:16.156Z,90.72
2017-11-07T08:25:44.849Z,90.80
2017-11-07T08:28:13.615Z,90.86
2017-11-07T08:30:42.354Z,90.89
2017-11-07T08:33:11.043Z,90.88
2017-11-07T08:35:39.692Z,90.89
2017-11-07T08:38:08.391Z,90.92
2017-11-07T08:40:37.067Z,90.96
2017-11-07T08:43:05.772Z,90.86
2017-11-07T08:45:34.474Z,90.88
2017-11-07T08:48:03.122Z,90.88
2017-11-07T08:50:31.883Z,90.84
2017-11-07T08:53:00.529Z,90.91
2017-11-07T08:55:29.221Z,90.95
2017-11-07T08:57:57.867Z,91.00
2017-11-07T09:00:26.535Z,90.96
2017-11-07T09:02:55.231Z,90.94
2017-11-07T09:05:23.873Z,91.20
2017-11-07T09:07:52.609Z,91.13
2017-11-07T09:10:20.971Z,91.07
2017-11-07T09:12:49.703Z,90.99
2017-11-07T09:15:18.380Z,91.06
2017-11-07T09:17:47.051Z,91.07
2017-11-07T09:20:15.766Z,91.17
2017-11-07T09:22:44.416Z,91.16
2017-11-07T09:25:13.157Z,91.32
2017-11-07T09:27:41.799Z,91.16
2017-11-07T09:30:10.577Z,91.18
2017-11-07T09:32:39.244Z,91.23
2017-11-07T09:35:07.922Z,91.34
2017-11-07T09:37:36.883Z,91.17
2017-11-07T09:40:05.528Z,91.17
2017-11-07T09:42:34.215Z,91.25
2017-11-07T09:45:02.859Z,91.43
2017-11-07T09:47:31.554Z,91.48
2017-11-07T09:50:00.191Z,91.50
2017-11-07T09:52:29.088Z,91.40
2017-11-07T09:54:57.778Z,91.37
2017-11-07T09:57:26.435Z,91.29
2017-11-07T09:59:55.162Z,91.20
2017-11-07T10:02:23.908Z,91.15
2017-11-07T10:04:52.542Z,91.24
2017-11-07T10:07:21.548Z,91.39
2017-11-07T10:09:50.216Z,91.37
2017-11-07T10:12:18.897Z,91.32
2017-11-07T10:14:47.550Z,91.29
2017-11-07T10:17:16.254Z,91.31
2017-11-07T10:19:44.903Z,91.38
2017-11-07T10:22:13.684Z,91.32
2017-11-07T10:24:42.375Z,91.38
2017-11-07T10:27:11.099Z,91.52
2017-11-07T10:29:39.767Z,91.35
2017-11-07T10:32:08.458Z,91.31
2017-11-07T10:34:40.309Z,91.33
2017-11-07T10:37:09.951Z,91.25
2017-11-07T10:39:38.654Z,91.33
2017-11-07T10:42:07.383Z,91.30
2017-11-07T10:44:36.046Z,91.37
2017-11-07T10:47:10.852Z,91.38
2017-11-07T10:49:39.524Z,91.37
2017-11-07T10:52:08.202Z,91.40
2017-11-07T10:54:36.899Z,91.50
2017-11-07T10:57:20.896Z,91.47
2017-11-07T10:59:52.640Z,91.47
2017-11-07T11:02:26.130Z,91.45
2017-11-07T11:04:57.276Z,91.44
2017-11-07T11:07:26.023Z,91.38
2017-11-07T11:09:54.799Z,91.37
2017-11-07T11:12:23.619Z,91.31
2017-11-07T11:14:52.279Z,91.31
2017-11-07T11:17:20.978Z,91.19
2017-11-07T11:19:49.761Z,91.20
2017-11-07T11:22:18.423Z,91.17
2017-11-07T11:24:47.137Z,91.17
2017-11-07T11:27:15.815Z,91.18
2017-11-07T11:29:44.522Z,91.16
2017-11-07T11:32:13.187Z,91.18
2017-11-07T11:34:41.974Z,91.12
2017-11-07T11:37:10.698Z,91.11
2017-11-07T11:39:39.358Z,91.07
2017-11-07T11:42:08.075Z,91.03
2017-11-07T11:44:36.784Z,91.08
2017-11-07T11:47:06.814Z,91.02
2017-11-07T11:49:35.510Z,90.98
2017-11-07T11:52:04.183Z,90.98
2017-11-07T11:54:32.946Z,91.06
2017-11-07T11:57:03.239Z,90.90
2017-11-07T11:59:31.926Z,90.85
2017-11-07T12:02:00.634Z,90.89
2017-11-07T12:04:29.348Z,90.90
2017-11-07T12:06:58.054Z,90.93
2017-11-07T12:09:26.728Z,90.86
2017-11-07T12:11:55.455Z,90.97
2017-11-07T12:14:24.110Z,90.85
2017-11-07T12:16:52.833Z,90.96
2017-11-07T12:19:21.493Z,90.82
2017-11-07T12:21:50.364Z,90.77
2017-11-07T12:24:19.094Z,90.74
2017-11-07T12:26:47.767Z,90.75
2017-11-07T12:29:16.468Z,90.81
2017-11-07T12:31:45.166Z,90.71
2017-11-07T12:34:13.961Z,90.65
2017-11-07T12:36:42.317Z,90.64
2017-11-07T12:39:11.049Z,90.61
2017-11-07T12:41:39.768Z,90.54
2017-11-07T12:44:08.498Z,90.62
2017-11-07T12:46:37.155Z,90.68
2017-11-07T12:49:05.831Z,90.70
2017-11-07T12:51:45.463Z,90.59
2017-11-07T12:54:13.603Z,90.60
2017-11-07T12:56:42.267Z,90.63
2017-11-07T12:59:10.951Z,90.58
2017-11-07T13:01:39.620Z,90.59
2017-11-07T13:04:08.332Z,90.56
2017-11-07T13:06:37.049Z,90.54
2017-11-07T13:09:05.237Z,90.60
2017-11-07T13:11:33.951Z,90.50
2017-11-07T13:14:02.588Z,90.50
2017-11-07T13:16:31.262Z,90.49
2017-11-07T13:18:59.911Z,90.49
2017-11-07T13:21:28.607Z,90.55
2017-11-07T13:23:57.309Z,90.58
2017-11-07T13:26:26.042Z,90.61
2017-11-07T13:28:54.757Z,90.57
2017-11-07T13:31:23.544Z,90.57
2017-11-07T13:33:52.251Z,90.48
2017-11-07T13:36:20.911Z,90.47
2017-11-07T13:38:49.600Z,90.47
2017-11-07T13:41:18.274Z,90.55
2017-11-07T13:43:46.918Z,90.55
2017-11-07T13:46:15.620Z,90.49
2017-11-07T13:48:44.295Z,90.58
2017-11-07T13:51:12.999Z,90.52
2017-11-07T13:53:41.680Z,90.45
2017-11-07T13:56:10.346Z,90.43
2017-11-07T13:58:38.888Z,90.47
2017-11-07T14:01:07.600Z,90.45
2017-11-07T14:03:36.282Z,90.36
2017-11-07T14:06:05.020Z,90.41
2017-11-07T14:08:33.759Z,90.35
2017-11-07T14:11:02.423Z,90.32
2017-11-07T14:13:31.259Z,90.32
2017-11-07T14:15:59.981Z,90.26
2017-11-07T14:18:28.883Z,90.19
2017-11-07T14:20:57.546Z,90.15
2017-11-07T14:23:26.258Z,90.15
2017-11-07T14:25:54.937Z,90.08
2017-11-07T14:28:23.611Z,89.92
2017-11-07T14:30:52.311Z,89.91
2017-11-07T14:33:21.026Z,89.97
2017-11-07T14:35:49.695Z,89.78
2017-11-07T14:38:18.366Z,89.70
2017-11-07T14:40:47.388Z,89.67
2017-11-07T14:43:16.100Z,89.63
2017-11-07T14:45:44.742Z,89.59
2017-11-07T14:48:13.438Z,89.67
2017-11-07T14:50:42.100Z,89.66
2017-11-07T14:53:10.767Z,89.62
2017-11-07T14:55:39.478Z,89.50
2017-11-07T14:58:08.130Z,89.50
2017-11-07T15:00:36.814Z,89.44
2017-11-07T15:03:05.480Z,89.21
2017-11-07T15:05:34.170Z,89.46
2017-11-07T15:08:02.827Z,89.56
2017-11-07T15:10:31.478Z,89.58
2017-11-07T15:13:00.162Z,89.61
2017-11-07T15:15:28.809Z,89.58
2017-11-07T15:17:57.508Z,89.51
2017-11-07T15:20:26.158Z,89.52
2017-11-07T15:22:54.917Z,89.61
2017-11-07T15:25:23.558Z,89.61
2017-11-07T15:27:52.275Z,89.64
2017-11-07T15:30:20.972Z,89.65
2017-11-07T15:32:49.629Z,89.63
2017-11-07T15:35:18.359Z,89.58
2017-11-07T15:37:47.017Z,89.63
2017-11-07T15:40:15.707Z,89.63
2017-11-07T15:42:44.393Z,89.57
2017-11-07T15:45:13.079Z,89.65
2017-11-07T15:47:41.807Z,89.68
2017-11-07T15:50:10.461Z,89.62
2017-11-07T15:52:39.264Z,89.67
2017-11-07T15:55:07.929Z,89.68
2017-11-07T15:57:36.634Z,89.65
2017-11-07T16:00:05.352Z,89.66
2017-11-07T16:02:34.021Z,89.69
2017-11-07T16:05:02.715Z,89.69
2017-11-07T16:07:31.375Z,89.71
2017-11-07T16:10:00.023Z,89.73
2017-11-07T16:12:28.708Z,89.70
2017-11-07T16:14:57.355Z,89.67
2017-11-07T16:17:26.032Z,89.64
2017-11-07T16:19:54.715Z,89.65
2017-11-07T16:22:23.408Z,89.66
2017-11-07T16:24:52.091Z,89.67
2017-11-07T16:27:20.735Z,89.68
2017-11-07T16:29:49.763Z,89.75
2017-11-07T16:32:18.405Z,89.79
2017-11-07T16:34:47.141Z,89.83
2017-11-07T16:37:15.826Z,89.83
2017-11-07T16:39:44.492Z,89.93
2017-11-07T16:42:13.133Z,89.91
2017-11-07T16:44:41.835Z,89.90
2017-11-07T16:47:11.618Z,89.95
2017-11-07T16:49:40.313Z,89.99
2017-11-07T16:52:08.965Z,89.99
2017-11-07T16:54:37.642Z,90.04
2017-11-07T16:57:07.387Z,90.12
2017-11-07T16:59:36.098Z,90.16
2017-11-07T17:02:04.759Z,90.10
2017-11-07T17:04:33.402Z,90.16
2017-11-07T17:07:02.100Z,90.22
2017-11-07T17:09:32.097Z,90.20
2017-11-07T17:12:11.583Z,90.23
2017-11-07T17:14:50.454Z,90.29
2017-11-07T17:17:28.953Z,90.34
2017-11-07T17:20:07.782Z,90.29
2017-11-07T17:22:51.063Z,90.32
2017-11-07T17:25:31.877Z,90.37
2017-11-07T17:28:15.105Z,90.37
2017-11-07T17:30:52.933Z,90.46
2017-11-07T17:33:30.867Z,90.42
2017-11-07T17:36:07.519Z,90.41
2017-11-07T17:38:38.582Z,90.41
2017-11-07T17:41:07.582Z,90.42
2017-11-07T17:43:45.744Z,90.42
2017-11-07T17:46:24.757Z,90.47
2017-11-07T17:49:09.188Z,90.50
2017-11-07T17:51:48.110Z,90.47
2017-11-07T17:54:30.521Z,90.47
2017-11-07T17:57:16.632Z,90.47
2017-11-07T17:59:59.132Z,90.50
2017-11-07T18:02:40.601Z,90.51
2017-11-07T18:05:21.336Z,90.49
2017-11-07T18:07:56.014Z,90.50
2017-11-07T18:10:33.482Z,90.53
2017-11-07T18:13:12.281Z,90.53
2017-11-07T18:15:44.173Z,90.54
2017-11-07T18:18:21.905Z,90.56
2017-11-07T18:21:04.786Z,90.53
2017-11-07T18:23:45.005Z,90.53
2017-11-07T18:26:30.294Z,90.58
2017-11-07T18:29:11.097Z,90.61
2017-11-07T18:31:54.361Z,90.59
2017-11-07T18:34:38.081Z,90.58
2017-11-07T18:37:19.670Z,90.61
2017-11-07T18:40:01.469Z,90.58
2017-11-07T18:42:41.354Z,90.62
2017-11-07T18:45:19.734Z,90.60
2017-11-07T18:48:01.860Z,90.59
2017-11-07T18:50:43.416Z,90.63
2017-11-07T18:53:27.577Z,90.60
2017-11-07T18:56:10.225Z,90.63
2017-11-07T18:58:43.499Z,90.65
2017-11-07T19:04:16.684Z,90.68
2017-11-07T19:06:58.648Z,90.67
2017-11-07T19:09:39.231Z,90.63
2017-11-07T19:12:29.070Z,90.63
2017-11-07T19:15:10.620Z,90.63
2017-11-07T19:17:52.099Z,90.64
2017-11-07T19:20:31.728Z,90.64
2017-11-07T19:23:06.277Z,90.68
2017-11-07T19:25:39.256Z,90.67
2017-11-07T19:28:22.235Z,90.63
2017-11-07T19:31:06.173Z,90.62
2017-11-07T19:33:48.475Z,90.57
2017-11-07T19:36:33.651Z,90.60
2017-11-07T19:39:17.278Z,90.63
2017-11-07T19:41:57.147Z,90.61
2017-11-07T19:44:35.050Z,90.64
2017-11-07T19:47:13.489Z,90.65
2017-11-07T19:49:54.408Z,90.65
2017-11-07T19:52:27.074Z,90.62
2017-11-07T19:55:10.818Z,90.62
2017-11-07T19:57:52.350Z,90.63
2017-11-07T20:00:36.967Z,90.64
2017-11-07T20:03:15.357Z,90.70
2017-11-07T20:05:59.604Z,90.66
2017-11-07T20:08:39.382Z,90.66
2017-11-07T20:11:21.584Z,90.64
2017-11-07T20:14:04.401Z,90.58
2017-11-07T20:16:41.228Z,90.62
2017-11-07T20:19:22.125Z,90.62
2017-11-07T20:22:02.788Z,90.63
2017-11-07T20:24:44.853Z,90.65
2017-11-07T20:27:28.425Z,90.62
2017-11-07T20:30:11.439Z,90.63
2017-11-07T20:32:50.730Z,90.60
2017-11-07T20:35:35.499Z,90.60
2017-11-07T20:38:20.209Z,90.64
2017-11-07T20:40:59.699Z,90.62
2017-11-07T20:43:36.275Z,90.61
2017-11-07T20:46:10.858Z,90.66
2017-11-07T20:48:40.759Z,90.63
2017-11-07T20:51:09.487Z,90.68
2017-11-07T20:53:38.136Z,90.72
2017-11-07T20:56:06.806Z,90.71
2017-11-07T20:58:35.533Z,90.68
2017-11-07T21:01:04.203Z,90.72
2017-11-07T21:03:32.917Z,90.72
2017-11-07T21:06:01.668Z,90.75
2017-11-07T21:08:30.362Z,90.75
2017-11-07T21:10:59.004Z,90.78
2017-11-07T21:13:27.743Z,90.77
2017-11-07T21:15:56.459Z,90.79
2017-11-07T21:18:25.159Z,90.82
2017-11-07T21:20:55.788Z,90.84
2017-11-07T21:23:24.455Z,90.79
2017-11-07T21:25:53.183Z,90.84
2017-11-07T21:28:21.923Z,90.84
2017-11-07T21:30:50.562Z,90.83
2017-11-07T21:33:19.246Z,90.82
2017-11-07T21:35:47.944Z,90.82
2017-11-07T21:38:16.647Z,90.84
2017-11-07T21:40:45.301Z,90.86
2017-11-07T21:43:13.984Z,90.85
2017-11-07T21:45:42.731Z,90.87
2017-11-07T21:48:11.391Z,90.86
2017-11-07T21:50:40.092Z,90.85
2017-11-07T21:53:08.739Z,90.81
2017-11-07T21:55:37.424Z,90.83
2017-11-07T21:58:06.082Z,90.80
2017-11-07T22:00:34.766Z,90.79
2017-11-07T22:03:03.446Z,90.75
2017-11-07T22:05:32.138Z,90.75
2017-11-07T22:08:00.878Z,90.74
2017-11-07T22:10:29.538Z,90.76
2017-11-07T22:12:58.263Z,90.78
2017-11-07T22:15:26.910Z,90.75
2017-11-07T22:17:56.420Z,90.75
2017-11-07T22:20:25.114Z,90.76
2017-11-07T22:22:57.762Z,90.75
2017-11-07T22:25:26.551Z,90.78
2017-11-07T22:27:55.190Z,90.76
2017-11-07T22:30:23.886Z,90.77
2017-11-07T22:32:52.543Z,90.72
2017-11-07T22:35:21.405Z,90.76
2017-11-07T22:37:50.099Z,90.76
2017-11-07T22:40:18.751Z,90.76
2017-11-07T22:42:47.448Z,90.75
2017-11-07T22:45:16.111Z,90.74
2017-11-07T22:47:44.746Z,90.77
2017-11-07T22:50:13.458Z,90.82
2017-11-07T22:52:42.142Z,90.81
2017-11-07T22:55:10.839Z,90.83
2017-11-07T22:57:39.502Z,90.84
2017-11-07T23:00:08.049Z,90.87
2017-11-07T23:02:36.722Z,90.83
2017-11-07T23:05:07.099Z,90.84
2017-11-07T23:07:35.823Z,90.82
2017-11-07T23:10:04.491Z,90.86
2017-11-07T23:12:33.167Z,90.84
2017-11-07T23:15:01.523Z,90.89
2017-11-07T23:17:30.057Z,90.92
2017-11-07T23:19:58.749Z,90.96
2017-11-07T23:22:27.414Z,90.98
2017-11-07T23:24:56.174Z,90.98
2017-11-07T23:27:24.828Z,91.01
2017-11-07T23:29:53.507Z,91.01
2017-11-07T23:32:22.224Z,90.98
2017-11-07T23:34:50.875Z,91.00
2017-11-07T23:37:19.530Z,91.02
2017-11-07T23:39:48.216Z,91.01
2017-11-07T23:42:17.589Z,91.02
2017-11-07T23:44:46.286Z,91.01
2017-11-07T23:47:14.941Z,90.99
2017-11-07T23:49:43.578Z,90.99
2017-11-07T23:52:12.318Z,91.05
2017-11-07T23:54:41.244Z,91.05
2017-11-07T23:57:09.892Z,91.04
2017-11-07T23:59:38.802Z,91.10
